sensor_id;sensor_type;location;lat;lon;timestamp;pressure;altitude;pressure_sealevel;temperature;humidity
83308;BME280;73223;48.584;13.460;2024-01-25T00:01:43;97702.94;;;6.91;100.00
83308;BME280;73223;48.584;13.460;2024-01-25T00:04:08;97699.41;;;7.15;100.00
83308;BME280;73223;48.584;13.460;2024-01-25T00:06:34;97697.75;;;6.95;100.00
83308;BME280;73223;48.584;13.460;2024-01-25T00:09:00;97698.56;;;7.04;100.00
83308;BME280;73223;48.584;13.460;2024-01-25T00:11:26;97696.00;;;7.04;100.00
83308;BME280;73223;48.584;13.460;2024-01-25T00:13:51;97702.81;;;7.20;100.00
83308;BME280;73223;48.584;13.460;2024-01-25T00:16:16;97699.34;;;7.27;100.00
83308;BME280;73223;48.584;13.460;2024-01-25T00:18:42;97702.06;;;6.95;100.00
83308;BME280;73223;48.584;13.460;2024-01-25T00:21:07;97702.06;;;6.98;100.00
83308;BME280;73223;48.584;13.460;2024-01-25T00:23:32;97702.06;;;6.95;100.00
83308;BME280;73223;48.584;13.460;2024-01-25T00:25:58;97711.47;;;7.07;100.00
83308;BME280;73223;48.584;13.460;2024-01-25T00:28:24;97715.75;;;7.06;100.00
83308;BME280;73223;48.584;13.460;2024-01-25T00:30:50;97715.75;;;7.11;100.00
83308;BME280;73223;48.584;13.460;2024-01-25T00:33:15;97721.75;;;7.13;100.00
83308;BME280;73223;48.584;13.460;2024-01-25T00:35:41;97721.78;;;7.05;100.00
83308;BME280;73223;48.584;13.460;2024-01-25T00:38:06;97720.91;;;7.00;100.00
83308;BME280;73223;48.584;13.460;2024-01-25T00:40:32;97706.41;;;6.76;100.00
83308;BME280;73223;48.584;13.460;2024-01-25T00:42:57;97712.34;;;7.01;100.00
83308;BME280;73223;48.584;13.460;2024-01-25T00:45:23;97717.47;;;7.16;100.00
83308;BME280;73223;48.584;13.460;2024-01-25T00:47:49;97721.78;;;7.04;100.00
83308;BME280;73223;48.584;13.460;2024-01-25T00:50:15;97721.78;;;7.08;100.00
83308;BME280;73223;48.584;13.460;2024-01-25T00:52:43;97711.47;;;7.04;100.00
83308;BME280;73223;48.584;13.460;2024-01-25T00:55:09;97718.44;;;6.77;100.00
83308;BME280;73223;48.584;13.460;2024-01-25T00:57:35;97710.66;;;6.97;100.00
83308;BME280;73223;48.584;13.460;2024-01-25T01:00:00;97710.59;;;7.05;100.00
83308;BME280;73223;48.584;13.460;2024-01-25T01:02:27;97708.06;;;6.95;100.00
83308;BME280;73223;48.584;13.460;2024-01-25T01:04:57;97713.22;;;6.92;100.00
83308;BME280;73223;48.584;13.460;2024-01-25T01:07:23;97710.66;;;6.82;100.00
83308;BME280;73223;48.584;13.460;2024-01-25T01:09:48;97709.78;;;6.90;100.00
83308;BME280;73223;48.584;13.460;2024-01-25T01:12:13;97701.16;;;7.08;100.00
83308;BME280;73223;48.584;13.460;2024-01-25T01:14:39;97707.22;;;6.95;100.00
83308;BME280;73223;48.584;13.460;2024-01-25T01:17:04;97708.03;;;7.02;100.00
83308;BME280;73223;48.584;13.460;2024-01-25T01:19:30;97696.88;;;7.00;100.00
83308;BME280;73223;48.584;13.460;2024-01-25T01:21:56;97697.75;;;6.99;100.00
83308;BME280;73223;48.584;13.460;2024-01-25T01:24:21;97713.22;;;6.91;100.00
83308;BME280;73223;48.584;13.460;2024-01-25T01:26:46;97702.91;;;6.99;100.00
83308;BME280;73223;48.584;13.460;2024-01-25T01:29:12;97701.16;;;7.02;100.00
83308;BME280;73223;48.584;13.460;2024-01-25T01:31:37;97705.50;;;6.92;100.00
83308;BME280;73223;48.584;13.460;2024-01-25T01:34:02;97707.22;;;6.81;100.00
83308;BME280;73223;48.584;13.460;2024-01-25T01:36:27;97705.44;;;7.11;100.00
83308;BME280;73223;48.584;13.460;2024-01-25T01:38:53;97691.75;;;6.92;100.00
83308;BME280;73223;48.584;13.460;2024-01-25T01:41:18;97684.88;;;6.97;100.00
83308;BME280;73223;48.584;13.460;2024-01-25T01:43:43;97684.81;;;7.09;100.00
83308;BME280;73223;48.584;13.460;2024-01-25T01:46:34;97691.69;;;7.12;100.00
83308;BME280;73223;48.584;13.460;2024-01-25T01:49:08;97685.75;;;6.94;100.00
83308;BME280;73223;48.584;13.460;2024-01-25T01:51:36;97684.94;;;6.80;100.00
83308;BME280;73223;48.584;13.460;2024-01-25T01:54:02;97685.78;;;6.75;100.00
83308;BME280;73223;48.584;13.460;2024-01-25T01:56:31;97680.63;;;6.79;100.00
83308;BME280;73223;48.584;13.460;2024-01-25T01:59:00;97677.97;;;6.99;100.00
83308;BME280;73223;48.584;13.460;2024-01-25T02:01:26;97679.75;;;6.86;100.00
83308;BME280;73223;48.584;13.460;2024-01-25T02:03:52;97676.31;;;6.81;100.00
83308;BME280;73223;48.584;13.460;2024-01-25T02:06:18;97678.03;;;6.84;100.00
83308;BME280;73223;48.584;13.460;2024-01-25T02:08:45;97672.88;;;6.84;100.00
83308;BME280;73223;48.584;13.460;2024-01-25T02:11:12;97683.22;;;6.70;100.00
83308;BME280;73223;48.584;13.460;2024-01-25T02:13:37;97682.25;;;7.11;100.00
83308;BME280;73223;48.584;13.460;2024-01-25T02:16:03;97682.31;;;6.88;100.00
83308;BME280;73223;48.584;13.460;2024-01-25T02:18:28;97684.94;;;6.74;100.00
83308;BME280;73223;48.584;13.460;2024-01-25T02:20:54;97678.94;;;6.65;100.00
83308;BME280;73223;48.584;13.460;2024-01-25T02:23:19;97677.09;;;7.09;100.00
83308;BME280;73223;48.584;13.460;2024-01-25T02:25:44;97670.22;;;7.04;100.00
83308;BME280;73223;48.584;13.460;2024-01-25T02:28:10;97672.81;;;7.02;100.00
83308;BME280;73223;48.584;13.460;2024-01-25T02:30:35;97677.09;;;7.03;100.00
83308;BME280;73223;48.584;13.460;2024-01-25T02:33:00;97668.50;;;7.09;100.00
83308;BME280;73223;48.584;13.460;2024-01-25T02:35:25;97665.97;;;6.96;100.00
83308;BME280;73223;48.584;13.460;2024-01-25T02:37:51;97670.22;;;6.99;100.00
83308;BME280;73223;48.584;13.460;2024-01-25T02:40:16;97662.53;;;6.97;100.00
83308;BME280;73223;48.584;13.460;2024-01-25T02:42:42;97672.91;;;6.78;100.00
83308;BME280;73223;48.584;13.460;2024-01-25T02:45:07;97665.19;;;6.72;100.00
83308;BME280;73223;48.584;13.460;2024-01-25T02:47:33;97669.47;;;6.70;100.00
83308;BME280;73223;48.584;13.460;2024-01-25T02:49:58;97668.56;;;6.93;100.00
83308;BME280;73223;48.584;13.460;2024-01-25T02:52:23;97668.56;;;6.83;100.00
83308;BME280;73223;48.584;13.460;2024-01-25T02:54:48;97670.34;;;6.75;100.00
83308;BME280;73223;48.584;13.460;2024-01-25T02:57:14;97668.50;;;7.00;100.00
83308;BME280;73223;48.584;13.460;2024-01-25T02:59:39;97664.22;;;7.05;100.00
83308;BME280;73223;48.584;13.460;2024-01-25T03:02:04;97671.19;;;6.74;100.00
83308;BME280;73223;48.584;13.460;2024-01-25T03:04:30;97673.78;;;6.72;100.00
83308;BME280;73223;48.584;13.460;2024-01-25T03:06:55;97668.56;;;6.98;100.00
83308;BME280;73223;48.584;13.460;2024-01-25T03:09:20;97664.28;;;6.86;100.00
83308;BME280;73223;48.584;13.460;2024-01-25T03:11:48;97670.28;;;6.84;100.00
83308;BME280;73223;48.584;13.460;2024-01-25T03:14:14;97670.34;;;6.79;100.00
83308;BME280;73223;48.584;13.460;2024-01-25T03:16:39;97664.31;;;6.68;100.00
83308;BME280;73223;48.584;13.460;2024-01-25T03:19:05;97669.44;;;6.82;100.00
83308;BME280;73223;48.584;13.460;2024-01-25T03:21:30;97669.41;;;6.94;100.00
83308;BME280;73223;48.584;13.460;2024-01-25T03:23:55;97666.72;;;7.23;100.00
83308;BME280;73223;48.584;13.460;2024-01-25T03:26:21;97671.13;;;6.98;100.00
83308;BME280;73223;48.584;13.460;2024-01-25T03:28:46;97665.19;;;6.75;100.00
83308;BME280;73223;48.584;13.460;2024-01-25T03:31:11;97667.63;;;7.07;100.00
83308;BME280;73223;48.584;13.460;2024-01-25T03:33:36;97662.66;;;6.58;100.00
83308;BME280;73223;48.584;13.460;2024-01-25T03:36:05;97666.94;;;6.51;100.00
83308;BME280;73223;48.584;13.460;2024-01-25T03:38:30;97661.78;;;6.62;100.00
83308;BME280;73223;48.584;13.460;2024-01-25T03:40:56;97653.16;;;6.69;100.00
83308;BME280;73223;48.584;13.460;2024-01-25T03:43:23;97668.63;;;6.66;100.00
83308;BME280;73223;48.584;13.460;2024-01-25T03:45:49;97666.03;;;6.71;100.00
83308;BME280;73223;48.584;13.460;2024-01-25T03:48:14;97659.22;;;6.48;100.00
83308;BME280;73223;48.584;13.460;2024-01-25T03:50:40;97667.75;;;6.69;100.00
83308;BME280;73223;48.584;13.460;2024-01-25T03:53:05;97672.00;;;6.82;100.00
83308;BME280;73223;48.584;13.460;2024-01-25T03:55:31;97666.03;;;6.77;100.00
83308;BME280;73223;48.584;13.460;2024-01-25T03:57:57;97681.53;;;6.60;100.00
83308;BME280;73223;48.584;13.460;2024-01-25T04:00:22;97678.88;;;6.87;100.00
83308;BME280;73223;48.584;13.460;2024-01-25T04:02:48;97667.72;;;6.82;100.00
83308;BME280;73223;48.584;13.460;2024-01-25T04:05:14;97670.34;;;6.78;100.00
83308;BME280;73223;48.584;13.460;2024-01-25T04:07:40;97665.19;;;6.72;100.00
83308;BME280;73223;48.584;13.460;2024-01-25T04:10:06;97670.41;;;6.44;100.00
83308;BME280;73223;48.584;13.460;2024-01-25T04:12:32;97670.28;;;6.82;100.00
83308;BME280;73223;48.584;13.460;2024-01-25T04:14:58;97661.69;;;6.88;100.00
83308;BME280;73223;48.584;13.460;2024-01-25T04:17:23;97662.63;;;6.67;100.00
83308;BME280;73223;48.584;13.460;2024-01-25T04:19:48;97654.81;;;6.94;100.00
83308;BME280;73223;48.584;13.460;2024-01-25T04:22:14;97657.47;;;6.70;100.00
83308;BME280;73223;48.584;13.460;2024-01-25T04:24:39;97669.44;;;6.88;100.00
83308;BME280;73223;48.584;13.460;2024-01-25T04:27:05;97666.91;;;6.73;100.00
83308;BME280;73223;48.584;13.460;2024-01-25T04:29:30;97671.13;;;6.93;100.00
83308;BME280;73223;48.584;13.460;2024-01-25T04:31:56;97666.03;;;6.71;100.00
83308;BME280;73223;48.584;13.460;2024-01-25T04:34:21;97660.91;;;6.68;100.00
83308;BME280;73223;48.584;13.460;2024-01-25T04:36:47;97677.22;;;6.73;100.00
83308;BME280;73223;48.584;13.460;2024-01-25T04:39:12;97670.28;;;6.94;100.00
83308;BME280;73223;48.584;13.460;2024-01-25T04:41:37;97674.56;;;6.94;100.00
83308;BME280;73223;48.584;13.460;2024-01-25T04:44:03;97679.72;;;6.89;100.00
83308;BME280;73223;48.584;13.460;2024-01-25T04:46:28;97683.97;;;7.01;100.00
83308;BME280;73223;48.584;13.460;2024-01-25T04:48:54;97679.72;;;6.91;100.00
83308;BME280;73223;48.584;13.460;2024-01-25T04:51:19;97692.66;;;6.65;100.00
83308;BME280;73223;48.584;13.460;2024-01-25T04:53:48;97695.19;;;6.82;100.00
83308;BME280;73223;48.584;13.460;2024-01-25T04:56:13;97690.03;;;6.95;100.00
83308;BME280;73223;48.584;13.460;2024-01-25T04:58:38;97694.34;;;6.92;100.00
83308;BME280;73223;48.584;13.460;2024-01-25T05:01:04;97690.13;;;6.48;100.00
83308;BME280;73223;48.584;13.460;2024-01-25T05:03:31;97696.97;;;6.63;100.00
83308;BME280;73223;48.584;13.460;2024-01-25T05:05:57;97692.69;;;6.54;100.00
83308;BME280;73223;48.584;13.460;2024-01-25T05:08:22;97703.00;;;6.51;100.00
83308;BME280;73223;48.584;13.460;2024-01-25T05:10:47;97710.69;;;6.65;100.00
83308;BME280;73223;48.584;13.460;2024-01-25T05:13:12;97703.88;;;6.44;100.00
83308;BME280;73223;48.584;13.460;2024-01-25T05:15:38;97715.84;;;6.63;100.00
83308;BME280;73223;48.584;13.460;2024-01-25T05:18:03;97713.28;;;6.79;100.00
83308;BME280;73223;48.584;13.460;2024-01-25T05:20:29;97717.59;;;6.52;100.00
83308;BME280;73223;48.584;13.460;2024-01-25T05:22:58;97717.53;;;6.81;100.00
83308;BME280;73223;48.584;13.460;2024-01-25T05:25:24;97711.56;;;6.75;100.00
83308;BME280;73223;48.584;13.460;2024-01-25T05:27:50;97714.16;;;6.56;100.00
83308;BME280;73223;48.584;13.460;2024-01-25T05:30:15;97715.84;;;6.76;100.00
83308;BME280;73223;48.584;13.460;2024-01-25T05:32:40;97714.16;;;6.59;100.00
83308;BME280;73223;48.584;13.460;2024-01-25T05:35:07;97719.34;;;6.44;100.00
83308;BME280;73223;48.584;13.460;2024-01-25T05:37:33;97719.31;;;6.52;100.00
83308;BME280;73223;48.584;13.460;2024-01-25T05:39:58;97708.16;;;6.54;100.00
83308;BME280;73223;48.584;13.460;2024-01-25T05:42:24;97711.59;;;6.47;100.00
83308;BME280;73223;48.584;13.460;2024-01-25T05:44:49;97714.16;;;6.49;100.00
83308;BME280;73223;48.584;13.460;2024-01-25T05:47:14;97721.88;;;6.47;100.00
83308;BME280;73223;48.584;13.460;2024-01-25T05:49:40;97715.03;;;6.54;100.00
83308;BME280;73223;48.584;13.460;2024-01-25T05:52:05;97704.69;;;6.65;100.00
83308;BME280;73223;48.584;13.460;2024-01-25T05:54:30;97704.72;;;6.55;100.00
83308;BME280;73223;48.584;13.460;2024-01-25T05:56:56;97715.88;;;6.56;100.00
83308;BME280;73223;48.584;13.460;2024-01-25T05:59:21;97711.63;;;6.43;100.00
83308;BME280;73223;48.584;13.460;2024-01-25T06:01:46;97716.75;;;6.55;100.00
83308;BME280;73223;48.584;13.460;2024-01-25T06:04:11;97719.31;;;6.34;100.00
83308;BME280;73223;48.584;13.460;2024-01-25T06:06:36;97713.34;;;6.44;100.00
83308;BME280;73223;48.584;13.460;2024-01-25T06:09:02;97714.16;;;6.50;100.00
83308;BME280;73223;48.584;13.460;2024-01-25T06:11:28;97710.75;;;6.44;100.00
83308;BME280;73223;48.584;13.460;2024-01-25T06:13:53;97733.06;;;6.57;100.00
83308;BME280;73223;48.584;13.460;2024-01-25T06:16:18;97726.19;;;6.54;100.00
83308;BME280;73223;48.584;13.460;2024-01-25T06:18:44;97723.56;;;6.65;100.00
83308;BME280;73223;48.584;13.460;2024-01-25T06:21:10;97730.41;;;6.86;100.00
83308;BME280;73223;48.584;13.460;2024-01-25T06:23:35;97737.28;;;6.81;100.00
83308;BME280;73223;48.584;13.460;2024-01-25T06:26:01;97744.22;;;6.59;100.00
83308;BME280;73223;48.584;13.460;2024-01-25T06:28:26;97761.38;;;6.75;100.00
83308;BME280;73223;48.584;13.460;2024-01-25T06:30:51;97759.63;;;6.63;100.00
83308;BME280;73223;48.584;13.460;2024-01-25T06:33:16;97786.28;;;6.59;100.00
83308;BME280;73223;48.584;13.460;2024-01-25T06:35:42;97776.81;;;6.78;100.00
83308;BME280;73223;48.584;13.460;2024-01-25T06:38:07;97777.69;;;6.68;100.00
83308;BME280;73223;48.584;13.460;2024-01-25T06:40:33;97781.97;;;6.52;100.00
83308;BME280;73223;48.584;13.460;2024-01-25T06:42:58;97783.69;;;6.69;100.00
83308;BME280;73223;48.584;13.460;2024-01-25T06:45:23;97781.13;;;6.61;100.00
83308;BME280;73223;48.584;13.460;2024-01-25T06:47:48;97762.22;;;6.48;100.00
83308;BME280;73223;48.584;13.460;2024-01-25T06:50:14;97769.09;;;6.71;100.00
83308;BME280;73223;48.584;13.460;2024-01-25T06:52:39;97763.94;;;6.28;100.00
83308;BME280;73223;48.584;13.460;2024-01-25T06:55:05;97763.09;;;6.47;100.00
83308;BME280;73223;48.584;13.460;2024-01-25T06:57:30;97764.84;;;6.42;100.00
83308;BME280;73223;48.584;13.460;2024-01-25T06:59:55;97757.06;;;6.65;100.00
83308;BME280;73223;48.584;13.460;2024-01-25T07:02:20;97763.09;;;6.31;100.00
83308;BME280;73223;48.584;13.460;2024-01-25T07:04:46;97772.53;;;6.21;100.00
83308;BME280;73223;48.584;13.460;2024-01-25T07:07:11;97777.69;;;6.19;100.00
83308;BME280;73223;48.584;13.460;2024-01-25T07:09:36;97806.88;;;6.41;100.00
83308;BME280;73223;48.584;13.460;2024-01-25T07:12:02;97808.56;;;6.32;100.00
83308;BME280;73223;48.584;13.460;2024-01-25T07:14:27;97818.88;;;6.27;100.00
83308;BME280;73223;48.584;13.460;2024-01-25T07:16:52;97805.16;;;6.49;100.00
83308;BME280;73223;48.584;13.460;2024-01-25T07:19:17;97822.34;;;6.63;100.00
83308;BME280;73223;48.584;13.460;2024-01-25T07:21:43;97819.75;;;6.67;100.00
83308;BME280;73223;48.584;13.460;2024-01-25T07:24:11;97836.09;;;6.58;100.00
83308;BME280;73223;48.584;13.460;2024-01-25T07:26:36;97832.66;;;6.61;100.00
83308;BME280;73223;48.584;13.460;2024-01-25T07:29:01;97857.50;;;6.35;100.00
83308;BME280;73223;48.584;13.460;2024-01-25T07:31:27;97844.66;;;6.73;100.00
83308;BME280;73223;48.584;13.460;2024-01-25T07:33:53;97848.09;;;6.75;100.00
83308;BME280;73223;48.584;13.460;2024-01-25T07:36:19;97860.97;;;6.81;100.00
83308;BME280;73223;48.584;13.460;2024-01-25T07:38:44;97856.69;;;6.81;100.00
83308;BME280;73223;48.584;13.460;2024-01-25T07:41:12;97861.81;;;6.63;100.00
83308;BME280;73223;48.584;13.460;2024-01-25T07:43:37;97859.22;;;6.36;100.00
83308;BME280;73223;48.584;13.460;2024-01-25T07:46:02;97853.25;;;6.58;100.00
83308;BME280;73223;48.584;13.460;2024-01-25T07:48:28;97860.97;;;6.53;100.00
83308;BME280;73223;48.584;13.460;2024-01-25T07:50:53;97855.81;;;6.70;100.00
83308;BME280;73223;48.584;13.460;2024-01-25T07:53:18;97840.38;;;6.67;100.00
83308;BME280;73223;48.584;13.460;2024-01-25T07:55:43;97842.97;;;6.78;100.00
83308;BME280;73223;48.584;13.460;2024-01-25T07:58:09;97842.94;;;6.53;100.00
83308;BME280;73223;48.584;13.460;2024-01-25T08:00:34;97827.47;;;6.53;100.00
83308;BME280;73223;48.584;13.460;2024-01-25T08:02:59;97829.22;;;6.80;100.00
83308;BME280;73223;48.584;13.460;2024-01-25T08:05:24;97822.34;;;6.63;100.00
83308;BME280;73223;48.584;13.460;2024-01-25T08:07:50;97818.06;;;6.77;100.00
83308;BME280;73223;48.584;13.460;2024-01-25T08:10:15;97830.06;;;6.53;100.00
83308;BME280;73223;48.584;13.460;2024-01-25T08:12:41;97827.47;;;6.67;100.00
83308;BME280;73223;48.584;13.460;2024-01-25T08:15:09;97823.19;;;6.58;100.00
83308;BME280;73223;48.584;13.460;2024-01-25T08:17:34;97840.38;;;6.72;100.00
83308;BME280;73223;48.584;13.460;2024-01-25T08:20:01;97848.91;;;6.30;100.00
83308;BME280;73223;48.584;13.460;2024-01-25T08:22:27;97836.94;;;6.77;100.00
83308;BME280;73223;48.584;13.460;2024-01-25T08:24:53;97832.66;;;6.78;100.00
83308;BME280;73223;48.584;13.460;2024-01-25T08:27:18;97845.53;;;6.70;100.00
83308;BME280;73223;48.584;13.460;2024-01-25T08:29:44;97838.63;;;6.48;100.00
83308;BME280;73223;48.584;13.460;2024-01-25T08:32:10;97824.06;;;6.80;100.00
83308;BME280;73223;48.584;13.460;2024-01-25T08:34:35;97832.63;;;6.64;100.00
83308;BME280;73223;48.584;13.460;2024-01-25T08:37:01;97836.03;;;6.30;100.00
83308;BME280;73223;48.584;13.460;2024-01-25T08:39:26;97831.75;;;6.47;100.00
83308;BME280;73223;48.584;13.460;2024-01-25T08:41:52;97831.78;;;6.54;100.00
83308;BME280;73223;48.584;13.460;2024-01-25T08:44:17;97823.19;;;6.68;100.00
83308;BME280;73223;48.584;13.460;2024-01-25T08:46:42;97832.63;;;6.67;100.00
83308;BME280;73223;48.584;13.460;2024-01-25T08:49:08;97837.81;;;6.63;100.00
83308;BME280;73223;48.584;13.460;2024-01-25T08:51:35;97829.22;;;6.70;100.00
83308;BME280;73223;48.584;13.460;2024-01-25T08:54:00;97825.78;;;6.78;100.00
83308;BME280;73223;48.584;13.460;2024-01-25T08:56:26;97836.09;;;6.80;100.00
83308;BME280;73223;48.584;13.460;2024-01-25T08:58:51;97859.28;;;6.78;100.00
83308;BME280;73223;48.584;13.460;2024-01-25T09:01:17;97860.97;;;6.81;100.00
83308;BME280;73223;48.584;13.460;2024-01-25T09:03:43;97871.28;;;6.93;100.00
83308;BME280;73223;48.584;13.460;2024-01-25T09:06:08;97869.56;;;6.93;100.00
83308;BME280;73223;48.584;13.460;2024-01-25T09:08:34;97879.03;;;6.79;100.00
83308;BME280;73223;48.584;13.460;2024-01-25T09:10:59;97888.47;;;6.89;100.00
83308;BME280;73223;48.584;13.460;2024-01-25T09:13:24;97883.31;;;7.00;100.00
83308;BME280;73223;48.584;13.460;2024-01-25T09:15:50;97887.59;;;7.00;100.00
83308;BME280;73223;48.584;13.460;2024-01-25T09:18:15;97896.19;;;6.86;100.00
83308;BME280;73223;48.584;13.460;2024-01-25T09:20:40;97897.91;;;6.72;100.00
83308;BME280;73223;48.584;13.460;2024-01-25T09:23:06;97900.47;;;7.22;100.00
83308;BME280;73223;48.584;13.460;2024-01-25T09:25:31;97896.19;;;7.00;100.00
83308;BME280;73223;48.584;13.460;2024-01-25T09:27:57;97902.19;;;6.99;100.00
83308;BME280;73223;48.584;13.460;2024-01-25T09:30:23;97895.34;;;7.01;100.00
83308;BME280;73223;48.584;13.460;2024-01-25T09:32:48;97896.19;;;7.03;100.00
83308;BME280;73223;48.584;13.460;2024-01-25T09:35:13;97902.22;;;7.02;100.00
83308;BME280;73223;48.584;13.460;2024-01-25T09:37:39;97908.22;;;6.87;100.00
83308;BME280;73223;48.584;13.460;2024-01-25T09:40:05;97911.69;;;6.97;100.00
83308;BME280;73223;48.584;13.460;2024-01-25T09:42:31;97918.53;;;6.93;100.00
83308;BME280;73223;48.584;13.460;2024-01-25T09:44:56;97908.22;;;7.03;100.00
83308;BME280;73223;48.584;13.460;2024-01-25T09:47:22;97919.38;;;7.18;100.00
83308;BME280;73223;48.584;13.460;2024-01-25T09:49:48;97923.69;;;6.93;100.00
83308;BME280;73223;48.584;13.460;2024-01-25T09:52:14;97931.44;;;6.90;100.00
83308;BME280;73223;48.584;13.460;2024-01-25T09:54:40;97921.13;;;7.09;100.00
83308;BME280;73223;48.584;13.460;2024-01-25T09:57:12;97924.56;;;6.95;100.00
83308;BME280;73223;48.584;13.460;2024-01-25T09:59:38;97927.97;;;6.85;100.00
83308;BME280;73223;48.584;13.460;2024-01-25T10:02:04;97934.84;;;6.83;100.00
83308;BME280;73223;48.584;13.460;2024-01-25T10:04:29;97939.16;;;7.12;100.00
83308;BME280;73223;48.584;13.460;2024-01-25T10:06:58;97945.19;;;6.94;100.00
83308;BME280;73223;48.584;13.460;2024-01-25T10:09:23;97951.19;;;7.19;100.00
83308;BME280;73223;48.584;13.460;2024-01-25T10:11:48;97939.16;;;7.10;100.00
83308;BME280;73223;48.584;13.460;2024-01-25T10:14:14;97947.78;;;7.14;100.00
83308;BME280;73223;48.584;13.460;2024-01-25T10:16:39;97948.59;;;6.78;100.00
83308;BME280;73223;48.584;13.460;2024-01-25T10:19:08;97945.19;;;7.11;100.00
83308;BME280;73223;48.584;13.460;2024-01-25T10:21:35;97958.94;;;7.29;100.00
83308;BME280;73223;48.584;13.460;2024-01-25T10:24:01;97954.66;;;7.33;100.00
83308;BME280;73223;48.584;13.460;2024-01-25T10:26:26;97954.66;;;7.15;100.00
83308;BME280;73223;48.584;13.460;2024-01-25T10:28:53;97958.94;;;7.16;100.00
83308;BME280;73223;48.584;13.460;2024-01-25T10:31:22;97957.19;;;7.00;100.00
83308;BME280;73223;48.584;13.460;2024-01-25T10:33:48;97953.75;;;7.37;100.00
83308;BME280;73223;48.584;13.460;2024-01-25T10:36:14;97957.22;;;7.07;100.00
83308;BME280;73223;48.584;13.460;2024-01-25T10:38:41;97954.63;;;7.27;100.00
83308;BME280;73223;48.584;13.460;2024-01-25T10:41:07;97961.50;;;7.08;100.00
83308;BME280;73223;48.584;13.460;2024-01-25T10:43:32;97958.09;;;7.30;100.00
83308;BME280;73223;48.584;13.460;2024-01-25T10:46:01;97963.25;;;7.14;100.00
83308;BME280;73223;48.584;13.460;2024-01-25T10:48:27;97969.25;;;7.14;100.00
83308;BME280;73223;48.584;13.460;2024-01-25T10:50:54;97974.41;;;7.25;100.00
83308;BME280;73223;48.584;13.460;2024-01-25T10:53:20;97983.00;;;7.13;100.00
83308;BME280;73223;48.584;13.460;2024-01-25T10:55:46;97986.41;;;7.18;100.00
83308;BME280;73223;48.584;13.460;2024-01-25T10:58:13;97969.22;;;6.91;100.00
83308;BME280;73223;48.584;13.460;2024-01-25T11:00:39;97968.38;;;7.38;100.00
83308;BME280;73223;48.584;13.460;2024-01-25T11:03:05;97965.78;;;6.80;100.00
83308;BME280;73223;48.584;13.460;2024-01-25T11:05:31;97964.09;;;7.05;100.00
83308;BME280;73223;48.584;13.460;2024-01-25T11:07:57;97970.09;;;7.24;100.00
83308;BME280;73223;48.584;13.460;2024-01-25T11:10:25;97952.91;;;7.02;100.00
83308;BME280;73223;48.584;13.460;2024-01-25T11:12:59;97967.50;;;7.01;100.00
83308;BME280;73223;48.584;13.460;2024-01-25T11:15:35;97971.81;;;7.26;100.00
83308;BME280;73223;48.584;13.460;2024-01-25T11:18:02;97973.53;;;7.43;100.00
83308;BME280;73223;48.584;13.460;2024-01-25T11:20:29;97964.09;;;7.29;100.00
83308;BME280;73223;48.584;13.460;2024-01-25T11:25:30;97983.00;;;7.31;100.00
83308;BME280;73223;48.584;13.460;2024-01-25T11:27:56;97963.19;;;7.55;100.00
83308;BME280;73223;48.584;13.460;2024-01-25T11:30:21;97957.19;;;7.70;100.00
83308;BME280;73223;48.584;13.460;2024-01-25T11:32:47;97962.38;;;7.30;100.00
83308;BME280;73223;48.584;13.460;2024-01-25T11:35:14;97969.22;;;7.02;100.00
83308;BME280;73223;48.584;13.460;2024-01-25T11:37:45;97960.63;;;7.35;100.00
83308;BME280;73223;48.584;13.460;2024-01-25T11:40:11;97952.03;;;7.42;100.00
83308;BME280;73223;48.584;13.460;2024-01-25T11:42:38;97936.59;;;7.22;100.00
83308;BME280;73223;48.584;13.460;2024-01-25T11:45:08;97947.78;;;7.14;100.00
83308;BME280;73223;48.584;13.460;2024-01-25T11:47:34;97930.56;;;7.10;100.00
83308;BME280;73223;48.584;13.460;2024-01-25T11:50:00;97952.03;;;7.59;100.00
83308;BME280;73223;48.584;13.460;2024-01-25T11:52:25;97948.56;;;7.58;100.00
83308;BME280;73223;48.584;13.460;2024-01-25T11:54:51;97945.03;;;7.99;100.00
83308;BME280;73223;48.584;13.460;2024-01-25T11:57:17;97949.25;;;8.35;100.00
83308;BME280;73223;48.584;13.460;2024-01-25T11:59:43;97948.53;;;7.78;100.00
83308;BME280;73223;48.584;13.460;2024-01-25T12:02:14;97953.53;;;8.27;100.00
83308;BME280;73223;48.584;13.460;2024-01-25T12:04:39;97948.34;;;8.31;100.00
83308;BME280;73223;48.584;13.460;2024-01-25T12:07:05;97945.97;;;7.84;100.00
83308;BME280;73223;48.584;13.460;2024-01-25T12:09:30;97946.88;;;7.65;100.00
83308;BME280;73223;48.584;13.460;2024-01-25T12:11:55;97927.03;;;7.87;100.00
83308;BME280;73223;48.584;13.460;2024-01-25T12:14:23;97939.94;;;7.76;100.00
83308;BME280;73223;48.584;13.460;2024-01-25T12:16:49;97931.34;;;7.77;100.00
83308;BME280;73223;48.584;13.460;2024-01-25T12:19:14;97951.19;;;7.45;100.00
83308;BME280;73223;48.584;13.460;2024-01-25T12:21:44;97947.69;;;7.76;100.00
83308;BME280;73223;48.584;13.460;2024-01-25T12:24:09;97950.22;;;7.94;100.00
83308;BME280;73223;48.584;13.460;2024-01-25T12:26:35;97934.84;;;7.52;100.00
83308;BME280;73223;48.584;13.460;2024-01-25T12:29:01;97948.56;;;7.63;100.00
83308;BME280;73223;48.584;13.460;2024-01-25T12:31:28;97942.56;;;7.58;100.00
83308;BME280;73223;48.584;13.460;2024-01-25T12:33:53;97954.56;;;7.71;100.00
83308;BME280;73223;48.584;13.460;2024-01-25T12:36:18;97962.34;;;7.19;100.00
83308;BME280;73223;48.584;13.460;2024-01-25T12:38:44;97952.03;;;7.63;100.00
83308;BME280;73223;48.584;13.460;2024-01-25T12:41:09;97955.47;;;7.62;100.00
83308;BME280;73223;48.584;13.460;2024-01-25T12:43:34;97949.41;;;7.83;100.00
83308;BME280;73223;48.584;13.460;2024-01-25T12:46:00;97951.97;;;7.76;100.00